sensor_id;sensor_type;location;lat;lon;timestamp;P1;durP1;ratioP1;P2;durP2;ratioP2
20415;SDS011;10367;52.202;5.996;2024-01-11T00:00:49;20.20;;;9.53;;
20415;SDS011;10367;52.202;5.996;2024-01-11T00:03:18;25.40;;;10.40;;
20415;SDS011;10367;52.202;5.996;2024-01-11T00:05:47;24.13;;;11.80;;
20415;SDS011;10367;52.202;5.996;2024-01-11T00:08:16;19.53;;;9.63;;
20415;SDS011;10367;52.202;5.996;2024-01-11T00:10:46;28.83;;;11.27;;
20415;SDS011;10367;52.202;5.996;2024-01-11T00:13:15;24.93;;;9.97;;
20415;SDS011;10367;52.202;5.996;2024-01-11T00:15:43;23.13;;;9.90;;
20415;SDS011;10367;52.202;5.996;2024-01-11T00:18:12;27.23;;;10.57;;
20415;SDS011;10367;52.202;5.996;2024-01-11T00:20:41;26.93;;;10.33;;
20415;SDS011;10367;52.202;5.996;2024-01-11T00:23:10;15.07;;;8.23;;
20415;SDS011;10367;52.202;5.996;2024-01-11T00:25:39;26.20;;;9.33;;
20415;SDS011;10367;52.202;5.996;2024-01-11T00:28:10;18.20;;;7.60;;
20415;SDS011;10367;52.202;5.996;2024-01-11T00:30:38;16.37;;;7.50;;
20415;SDS011;10367;52.202;5.996;2024-01-11T00:33:07;16.40;;;7.97;;
20415;SDS011;10367;52.202;5.996;2024-01-11T00:35:37;19.53;;;8.00;;
20415;SDS011;10367;52.202;5.996;2024-01-11T00:38:06;26.20;;;8.57;;
20415;SDS011;10367;52.202;5.996;2024-01-11T00:40:34;20.03;;;8.10;;
20415;SDS011;10367;52.202;5.996;2024-01-11T00:43:04;26.70;;;8.33;;
20415;SDS011;10367;52.202;5.996;2024-01-11T00:45:34;17.20;;;7.67;;
20415;SDS011;10367;52.202;5.996;2024-01-11T00:48:03;16.57;;;7.43;;
20415;SDS011;10367;52.202;5.996;2024-01-11T00:50:33;18.83;;;7.87;;
20415;SDS011;10367;52.202;5.996;2024-01-11T00:53:02;15.60;;;7.47;;
20415;SDS011;10367;52.202;5.996;2024-01-11T00:55:31;17.73;;;8.33;;
20415;SDS011;10367;52.202;5.996;2024-01-11T00:58:00;25.00;;;9.70;;
20415;SDS011;10367;52.202;5.996;2024-01-11T01:00:29;25.40;;;9.37;;
20415;SDS011;10367;52.202;5.996;2024-01-11T01:02:59;20.63;;;8.90;;
20415;SDS011;10367;52.202;5.996;2024-01-11T01:05:27;14.50;;;7.50;;
20415;SDS011;10367;52.202;5.996;2024-01-11T01:07:56;21.93;;;9.40;;
20415;SDS011;10367;52.202;5.996;2024-01-11T01:10:25;17.13;;;8.80;;
20415;SDS011;10367;52.202;5.996;2024-01-11T01:12:54;26.87;;;9.27;;
20415;SDS011;10367;52.202;5.996;2024-01-11T01:15:22;18.97;;;7.97;;
20415;SDS011;10367;52.202;5.996;2024-01-11T01:17:51;32.97;;;9.77;;
20415;SDS011;10367;52.202;5.996;2024-01-11T01:20:22;17.93;;;8.70;;
20415;SDS011;10367;52.202;5.996;2024-01-11T01:22:50;26.10;;;10.27;;
20415;SDS011;10367;52.202;5.996;2024-01-11T01:25:19;20.03;;;8.33;;
20415;SDS011;10367;52.202;5.996;2024-01-11T01:27:48;24.37;;;9.97;;
20415;SDS011;10367;52.202;5.996;2024-01-11T01:30:17;21.87;;;8.97;;
20415;SDS011;10367;52.202;5.996;2024-01-11T01:32:45;20.93;;;9.53;;
20415;SDS011;10367;52.202;5.996;2024-01-11T01:35:15;22.50;;;9.20;;
20415;SDS011;10367;52.202;5.996;2024-01-11T01:37:45;19.37;;;8.57;;
20415;SDS011;10367;52.202;5.996;2024-01-11T01:40:14;15.80;;;7.57;;
20415;SDS011;10367;52.202;5.996;2024-01-11T01:42:43;19.10;;;8.80;;
20415;SDS011;10367;52.202;5.996;2024-01-11T01:45:14;14.17;;;6.70;;
20415;SDS011;10367;52.202;5.996;2024-01-11T01:47:43;17.37;;;8.37;;
20415;SDS011;10367;52.202;5.996;2024-01-11T01:50:13;21.00;;;8.17;;
20415;SDS011;10367;52.202;5.996;2024-01-11T01:52:42;16.00;;;8.17;;
20415;SDS011;10367;52.202;5.996;2024-01-11T01:55:13;16.87;;;7.83;;
20415;SDS011;10367;52.202;5.996;2024-01-11T01:57:43;16.40;;;7.53;;
20415;SDS011;10367;52.202;5.996;2024-01-11T02:00:14;19.67;;;9.10;;
20415;SDS011;10367;52.202;5.996;2024-01-11T02:02:43;17.90;;;8.33;;
20415;SDS011;10367;52.202;5.996;2024-01-11T02:05:13;18.03;;;8.07;;
20415;SDS011;10367;52.202;5.996;2024-01-11T02:07:43;23.23;;;9.40;;
20415;SDS011;10367;52.202;5.996;2024-01-11T02:10:14;15.80;;;7.23;;
20415;SDS011;10367;52.202;5.996;2024-01-11T02:12:42;19.23;;;8.73;;
20415;SDS011;10367;52.202;5.996;2024-01-11T02:15:11;19.67;;;8.83;;
20415;SDS011;10367;52.202;5.996;2024-01-11T02:17:41;23.77;;;8.30;;
20415;SDS011;10367;52.202;5.996;2024-01-11T02:20:10;19.23;;;9.47;;
20415;SDS011;10367;52.202;5.996;2024-01-11T02:22:40;21.23;;;9.73;;
20415;SDS011;10367;52.202;5.996;2024-01-11T02:25:15;24.07;;;9.50;;
20415;SDS011;10367;52.202;5.996;2024-01-11T02:27:44;25.40;;;10.57;;
20415;SDS011;10367;52.202;5.996;2024-01-11T02:30:15;20.00;;;8.73;;
20415;SDS011;10367;52.202;5.996;2024-01-11T02:32:44;23.70;;;9.03;;
20415;SDS011;10367;52.202;5.996;2024-01-11T02:35:14;17.10;;;8.30;;
20415;SDS011;10367;52.202;5.996;2024-01-11T02:37:43;17.67;;;8.23;;
20415;SDS011;10367;52.202;5.996;2024-01-11T02:40:13;16.20;;;8.73;;
20415;SDS011;10367;52.202;5.996;2024-01-11T02:42:43;21.70;;;10.17;;
20415;SDS011;10367;52.202;5.996;2024-01-11T02:45:12;23.90;;;10.27;;
20415;SDS011;10367;52.202;5.996;2024-01-11T02:47:40;17.07;;;8.10;;
20415;SDS011;10367;52.202;5.996;2024-01-11T02:50:09;28.53;;;11.63;;
20415;SDS011;10367;52.202;5.996;2024-01-11T02:52:39;20.80;;;8.67;;
20415;SDS011;10367;52.202;5.996;2024-01-11T02:55:08;22.20;;;9.33;;
20415;SDS011;10367;52.202;5.996;2024-01-11T02:57:37;18.63;;;7.83;;
20415;SDS011;10367;52.202;5.996;2024-01-11T03:00:07;23.47;;;8.13;;
20415;SDS011;10367;52.202;5.996;2024-01-11T03:02:36;28.20;;;12.30;;
20415;SDS011;10367;52.202;5.996;2024-01-11T03:05:06;22.90;;;9.63;;
20415;SDS011;10367;52.202;5.996;2024-01-11T03:07:34;26.10;;;10.63;;
20415;SDS011;10367;52.202;5.996;2024-01-11T03:10:04;19.40;;;8.07;;
20415;SDS011;10367;52.202;5.996;2024-01-11T03:12:33;18.97;;;8.70;;
20415;SDS011;10367;52.202;5.996;2024-01-11T03:15:03;17.60;;;9.07;;
20415;SDS011;10367;52.202;5.996;2024-01-11T03:17:34;20.27;;;10.23;;
20415;SDS011;10367;52.202;5.996;2024-01-11T03:20:03;20.37;;;8.57;;
20415;SDS011;10367;52.202;5.996;2024-01-11T03:22:33;18.97;;;8.50;;
20415;SDS011;10367;52.202;5.996;2024-01-11T03:25:02;23.30;;;9.80;;
20415;SDS011;10367;52.202;5.996;2024-01-11T03:27:31;21.23;;;9.80;;
20415;SDS011;10367;52.202;5.996;2024-01-11T03:30:00;24.07;;;10.07;;
20415;SDS011;10367;52.202;5.996;2024-01-11T03:32:28;29.50;;;11.83;;
20415;SDS011;10367;52.202;5.996;2024-01-11T03:35:00;25.93;;;11.53;;
20415;SDS011;10367;52.202;5.996;2024-01-11T03:37:29;27.53;;;10.50;;
20415;SDS011;10367;52.202;5.996;2024-01-11T03:39:57;25.30;;;11.00;;
20415;SDS011;10367;52.202;5.996;2024-01-11T03:42:27;20.77;;;9.17;;
20415;SDS011;10367;52.202;5.996;2024-01-11T03:44:55;29.77;;;13.53;;
20415;SDS011;10367;52.202;5.996;2024-01-11T03:47:24;27.23;;;11.73;;
20415;SDS011;10367;52.202;5.996;2024-01-11T03:49:53;25.23;;;11.80;;
20415;SDS011;10367;52.202;5.996;2024-01-11T03:52:23;28.27;;;13.13;;
20415;SDS011;10367;52.202;5.996;2024-01-11T03:54:52;30.57;;;13.37;;
20415;SDS011;10367;52.202;5.996;2024-01-11T03:57:21;27.27;;;11.03;;
20415;SDS011;10367;52.202;5.996;2024-01-11T03:59:49;27.33;;;12.87;;
20415;SDS011;10367;52.202;5.996;2024-01-11T04:02:18;29.10;;;12.47;;
20415;SDS011;10367;52.202;5.996;2024-01-11T04:04:48;30.43;;;13.17;;
20415;SDS011;10367;52.202;5.996;2024-01-11T04:07:17;29.53;;;12.97;;
20415;SDS011;10367;52.202;5.996;2024-01-11T04:09:47;27.23;;;12.53;;
20415;SDS011;10367;52.202;5.996;2024-01-11T04:12:16;22.67;;;12.17;;
20415;SDS011;10367;52.202;5.996;2024-01-11T04:14:45;33.93;;;13.77;;
20415;SDS011;10367;52.202;5.996;2024-01-11T04:17:13;31.30;;;12.57;;
20415;SDS011;10367;52.202;5.996;2024-01-11T04:19:42;26.90;;;10.53;;
20415;SDS011;10367;52.202;5.996;2024-01-11T04:22:11;28.73;;;12.40;;
20415;SDS011;10367;52.202;5.996;2024-01-11T04:24:41;32.07;;;12.03;;
20415;SDS011;10367;52.202;5.996;2024-01-11T04:27:12;30.83;;;13.17;;
20415;SDS011;10367;52.202;5.996;2024-01-11T04:29:41;28.70;;;12.07;;
20415;SDS011;10367;52.202;5.996;2024-01-11T04:32:09;32.67;;;12.43;;
20415;SDS011;10367;52.202;5.996;2024-01-11T04:34:38;25.57;;;11.70;;
20415;SDS011;10367;52.202;5.996;2024-01-11T04:37:07;33.00;;;12.20;;
20415;SDS011;10367;52.202;5.996;2024-01-11T04:39:36;38.93;;;13.30;;
20415;SDS011;10367;52.202;5.996;2024-01-11T04:42:04;29.93;;;13.27;;
20415;SDS011;10367;52.202;5.996;2024-01-11T04:44:35;29.73;;;12.67;;
20415;SDS011;10367;52.202;5.996;2024-01-11T04:47:04;21.20;;;11.20;;
20415;SDS011;10367;52.202;5.996;2024-01-11T04:49:33;26.10;;;10.63;;
20415;SDS011;10367;52.202;5.996;2024-01-11T04:52:02;25.90;;;12.17;;
20415;SDS011;10367;52.202;5.996;2024-01-11T04:54:31;23.43;;;10.43;;
20415;SDS011;10367;52.202;5.996;2024-01-11T04:56:59;30.27;;;12.87;;
20415;SDS011;10367;52.202;5.996;2024-01-11T04:59:28;26.23;;;11.50;;
20415;SDS011;10367;52.202;5.996;2024-01-11T05:01:58;30.40;;;12.70;;
20415;SDS011;10367;52.202;5.996;2024-01-11T05:04:27;28.43;;;12.00;;
20415;SDS011;10367;52.202;5.996;2024-01-11T05:06:55;33.37;;;13.50;;
20415;SDS011;10367;52.202;5.996;2024-01-11T05:09:24;27.40;;;12.07;;
20415;SDS011;10367;52.202;5.996;2024-01-11T05:11:53;42.13;;;14.30;;
20415;SDS011;10367;52.202;5.996;2024-01-11T05:14:21;31.60;;;12.73;;
20415;SDS011;10367;52.202;5.996;2024-01-11T05:16:50;20.47;;;10.23;;
20415;SDS011;10367;52.202;5.996;2024-01-11T05:19:21;31.80;;;13.13;;
20415;SDS011;10367;52.202;5.996;2024-01-11T05:21:50;27.43;;;13.23;;
20415;SDS011;10367;52.202;5.996;2024-01-11T05:24:19;29.40;;;12.87;;
20415;SDS011;10367;52.202;5.996;2024-01-11T05:26:48;28.07;;;12.23;;
20415;SDS011;10367;52.202;5.996;2024-01-11T05:29:17;38.67;;;14.23;;
20415;SDS011;10367;52.202;5.996;2024-01-11T05:31:46;32.73;;;12.10;;
20415;SDS011;10367;52.202;5.996;2024-01-11T05:34:14;28.13;;;12.17;;
20415;SDS011;10367;52.202;5.996;2024-01-11T05:36:45;26.13;;;12.67;;
20415;SDS011;10367;52.202;5.996;2024-01-11T05:39:13;33.73;;;13.30;;
20415;SDS011;10367;52.202;5.996;2024-01-11T05:41:43;31.30;;;12.17;;
20415;SDS011;10367;52.202;5.996;2024-01-11T05:44:12;25.43;;;11.87;;
20415;SDS011;10367;52.202;5.996;2024-01-11T05:46:41;31.90;;;11.70;;
20415;SDS011;10367;52.202;5.996;2024-01-11T05:49:09;28.50;;;12.17;;
20415;SDS011;10367;52.202;5.996;2024-01-11T05:51:38;30.50;;;13.30;;
20415;SDS011;10367;52.202;5.996;2024-01-11T05:54:09;28.33;;;11.90;;
20415;SDS011;10367;52.202;5.996;2024-01-11T05:56:38;26.70;;;12.50;;
20415;SDS011;10367;52.202;5.996;2024-01-11T05:59:07;38.67;;;13.97;;
20415;SDS011;10367;52.202;5.996;2024-01-11T06:01:39;30.77;;;12.07;;
20415;SDS011;10367;52.202;5.996;2024-01-11T06:04:09;27.13;;;11.47;;
20415;SDS011;10367;52.202;5.996;2024-01-11T06:06:37;35.57;;;14.03;;
20415;SDS011;10367;52.202;5.996;2024-01-11T06:09:06;37.10;;;13.50;;
20415;SDS011;10367;52.202;5.996;2024-01-11T06:11:36;33.40;;;13.50;;
20415;SDS011;10367;52.202;5.996;2024-01-11T06:14:05;32.17;;;12.93;;
20415;SDS011;10367;52.202;5.996;2024-01-11T06:16:34;22.67;;;10.93;;
20415;SDS011;10367;52.202;5.996;2024-01-11T06:19:03;33.27;;;12.93;;
20415;SDS011;10367;52.202;5.996;2024-01-11T06:21:34;36.63;;;15.53;;
20415;SDS011;10367;52.202;5.996;2024-01-11T06:24:03;32.67;;;13.43;;
20415;SDS011;10367;52.202;5.996;2024-01-11T06:26:32;35.50;;;13.13;;
20415;SDS011;10367;52.202;5.996;2024-01-11T06:29:02;40.20;;;15.00;;
20415;SDS011;10367;52.202;5.996;2024-01-11T06:31:31;32.13;;;12.87;;
20415;SDS011;10367;52.202;5.996;2024-01-11T06:34:00;34.10;;;14.40;;
20415;SDS011;10367;52.202;5.996;2024-01-11T06:36:29;25.03;;;11.70;;
20415;SDS011;10367;52.202;5.996;2024-01-11T06:38:58;43.70;;;15.73;;
20415;SDS011;10367;52.202;5.996;2024-01-11T06:41:28;37.63;;;14.53;;
20415;SDS011;10367;52.202;5.996;2024-01-11T06:43:56;34.37;;;14.57;;
20415;SDS011;10367;52.202;5.996;2024-01-11T06:46:29;31.13;;;14.63;;
20415;SDS011;10367;52.202;5.996;2024-01-11T06:48:58;32.60;;;13.87;;
20415;SDS011;10367;52.202;5.996;2024-01-11T06:51:27;31.33;;;13.20;;
20415;SDS011;10367;52.202;5.996;2024-01-11T06:53:56;38.77;;;16.23;;
20415;SDS011;10367;52.202;5.996;2024-01-11T06:56:27;26.57;;;12.07;;
20415;SDS011;10367;52.202;5.996;2024-01-11T06:58:56;28.73;;;14.27;;
20415;SDS011;10367;52.202;5.996;2024-01-11T07:01:25;33.33;;;14.60;;
20415;SDS011;10367;52.202;5.996;2024-01-11T07:03:55;35.20;;;14.10;;
20415;SDS011;10367;52.202;5.996;2024-01-11T07:06:24;40.17;;;15.13;;
20415;SDS011;10367;52.202;5.996;2024-01-11T07:08:52;44.03;;;17.73;;
20415;SDS011;10367;52.202;5.996;2024-01-11T07:11:21;31.23;;;13.00;;
20415;SDS011;10367;52.202;5.996;2024-01-11T07:13:50;49.73;;;18.10;;
20415;SDS011;10367;52.202;5.996;2024-01-11T07:16:18;39.37;;;15.50;;
20415;SDS011;10367;52.202;5.996;2024-01-11T07:18:47;33.40;;;14.50;;
20415;SDS011;10367;52.202;5.996;2024-01-11T07:21:21;41.47;;;15.20;;
20415;SDS011;10367;52.202;5.996;2024-01-11T07:23:56;46.13;;;17.90;;
20415;SDS011;10367;52.202;5.996;2024-01-11T07:26:25;40.93;;;15.23;;
20415;SDS011;10367;52.202;5.996;2024-01-11T07:28:54;37.47;;;16.03;;
20415;SDS011;10367;52.202;5.996;2024-01-11T07:31:23;33.57;;;13.07;;
20415;SDS011;10367;52.202;5.996;2024-01-11T07:33:52;40.70;;;16.73;;
20415;SDS011;10367;52.202;5.996;2024-01-11T07:36:22;31.63;;;14.63;;
20415;SDS011;10367;52.202;5.996;2024-01-11T07:38:51;35.10;;;16.37;;
20415;SDS011;10367;52.202;5.996;2024-01-11T07:41:21;36.03;;;14.40;;
20415;SDS011;10367;52.202;5.996;2024-01-11T07:43:50;35.33;;;16.23;;
20415;SDS011;10367;52.202;5.996;2024-01-11T07:46:20;43.47;;;15.03;;
20415;SDS011;10367;52.202;5.996;2024-01-11T07:49:04;42.43;;;17.47;;
20415;SDS011;10367;52.202;5.996;2024-01-11T07:51:35;31.63;;;14.47;;
20415;SDS011;10367;52.202;5.996;2024-01-11T07:54:04;38.07;;;15.00;;
20415;SDS011;10367;52.202;5.996;2024-01-11T07:56:32;36.87;;;13.47;;
20415;SDS011;10367;52.202;5.996;2024-01-11T07:59:02;34.63;;;15.20;;
20415;SDS011;10367;52.202;5.996;2024-01-11T08:01:31;34.60;;;14.80;;
20415;SDS011;10367;52.202;5.996;2024-01-11T08:04:02;42.30;;;16.17;;
20415;SDS011;10367;52.202;5.996;2024-01-11T08:06:32;25.17;;;12.50;;
20415;SDS011;10367;52.202;5.996;2024-01-11T08:09:02;31.90;;;14.80;;
20415;SDS011;10367;52.202;5.996;2024-01-11T08:11:32;43.40;;;17.20;;
20415;SDS011;10367;52.202;5.996;2024-01-11T08:14:04;39.53;;;15.87;;
20415;SDS011;10367;52.202;5.996;2024-01-11T08:16:33;40.77;;;15.60;;
20415;SDS011;10367;52.202;5.996;2024-01-11T08:19:02;37.53;;;17.30;;
20415;SDS011;10367;52.202;5.996;2024-01-11T08:21:31;31.20;;;14.47;;
20415;SDS011;10367;52.202;5.996;2024-01-11T08:24:00;46.33;;;18.77;;
20415;SDS011;10367;52.202;5.996;2024-01-11T08:26:31;36.97;;;15.27;;
20415;SDS011;10367;52.202;5.996;2024-01-11T08:29:00;42.67;;;17.90;;
20415;SDS011;10367;52.202;5.996;2024-01-11T08:31:29;36.10;;;15.80;;
20415;SDS011;10367;52.202;5.996;2024-01-11T08:33:58;44.53;;;18.30;;
20415;SDS011;10367;52.202;5.996;2024-01-11T08:36:30;37.77;;;15.20;;
20415;SDS011;10367;52.202;5.996;2024-01-11T08:39:05;40.47;;;17.07;;
20415;SDS011;10367;52.202;5.996;2024-01-11T08:41:34;36.07;;;13.40;;
20415;SDS011;10367;52.202;5.996;2024-01-11T08:44:04;41.67;;;15.27;;
20415;SDS011;10367;52.202;5.996;2024-01-11T08:46:33;41.80;;;17.40;;
20415;SDS011;10367;52.202;5.996;2024-01-11T08:49:03;47.77;;;17.33;;
20415;SDS011;10367;52.202;5.996;2024-01-11T08:51:32;35.17;;;15.57;;
20415;SDS011;10367;52.202;5.996;2024-01-11T08:54:01;35.47;;;14.87;;
20415;SDS011;10367;52.202;5.996;2024-01-11T08:56:32;31.40;;;14.43;;
20415;SDS011;10367;52.202;5.996;2024-01-11T08:59:02;37.53;;;15.47;;
20415;SDS011;10367;52.202;5.996;2024-01-11T09:01:33;37.90;;;15.20;;
20415;SDS011;10367;52.202;5.996;2024-01-11T09:04:02;42.67;;;15.80;;
20415;SDS011;10367;52.202;5.996;2024-01-11T09:06:32;39.97;;;14.93;;
20415;SDS011;10367;52.202;5.996;2024-01-11T09:09:01;37.03;;;16.30;;
20415;SDS011;10367;52.202;5.996;2024-01-11T09:11:30;30.17;;;14.47;;
20415;SDS011;10367;52.202;5.996;2024-01-11T09:14:00;43.30;;;19.20;;
20415;SDS011;10367;52.202;5.996;2024-01-11T09:16:29;37.57;;;17.03;;
20415;SDS011;10367;52.202;5.996;2024-01-11T09:18:58;36.87;;;16.77;;
20415;SDS011;10367;52.202;5.996;2024-01-11T09:21:27;40.80;;;16.13;;
20415;SDS011;10367;52.202;5.996;2024-01-11T09:23:56;37.70;;;15.70;;
20415;SDS011;10367;52.202;5.996;2024-01-11T09:26:25;37.50;;;15.90;;
20415;SDS011;10367;52.202;5.996;2024-01-11T09:28:53;42.13;;;15.17;;
20415;SDS011;10367;52.202;5.996;2024-01-11T09:31:23;34.53;;;14.83;;
20415;SDS011;10367;52.202;5.996;2024-01-11T09:33:52;31.43;;;12.33;;
20415;SDS011;10367;52.202;5.996;2024-01-11T09:36:24;38.77;;;13.87;;
20415;SDS011;10367;52.202;5.996;2024-01-11T09:38:53;27.23;;;11.37;;
20415;SDS011;10367;52.202;5.996;2024-01-11T09:41:22;36.20;;;14.33;;
20415;SDS011;10367;52.202;5.996;2024-01-11T09:43:53;40.53;;;15.07;;
20415;SDS011;10367;52.202;5.996;2024-01-11T09:46:26;47.63;;;13.10;;
20415;SDS011;10367;52.202;5.996;2024-01-11T09:48:56;36.20;;;14.90;;
20415;SDS011;10367;52.202;5.996;2024-01-11T09:51:27;36.73;;;13.07;;
20415;SDS011;10367;52.202;5.996;2024-01-11T09:53:57;41.60;;;15.00;;
20415;SDS011;10367;52.202;5.996;2024-01-11T09:56:27;50.87;;;11.93;;
20415;SDS011;10367;52.202;5.996;2024-01-11T09:58:56;44.77;;;13.93;;
20415;SDS011;10367;52.202;5.996;2024-01-11T10:01:26;47.50;;;14.20;;
20415;SDS011;10367;52.202;5.996;2024-01-11T10:03:55;41.23;;;15.07;;
20415;SDS011;10367;52.202;5.996;2024-01-11T10:06:23;39.97;;;14.13;;
20415;SDS011;10367;52.202;5.996;2024-01-11T10:08:54;35.37;;;13.67;;
20415;SDS011;10367;52.202;5.996;2024-01-11T10:11:23;34.40;;;14.07;;
20415;SDS011;10367;52.202;5.996;2024-01-11T10:13:55;32.80;;;13.07;;
20415;SDS011;10367;52.202;5.996;2024-01-11T10:16:27;33.30;;;12.10;;
20415;SDS011;10367;52.202;5.996;2024-01-11T10:18:56;37.43;;;13.43;;
20415;SDS011;10367;52.202;5.996;2024-01-11T10:21:26;44.23;;;15.47;;
20415;SDS011;10367;52.202;5.996;2024-01-11T10:23:55;40.30;;;14.00;;
20415;SDS011;10367;52.202;5.996;2024-01-11T10:26:26;59.47;;;12.47;;
20415;SDS011;10367;52.202;5.996;2024-01-11T10:28:58;37.53;;;13.63;;
20415;SDS011;10367;52.202;5.996;2024-01-11T10:31:29;40.50;;;14.20;;
20415;SDS011;10367;52.202;5.996;2024-01-11T10:33:58;35.40;;;13.03;;
20415;SDS011;10367;52.202;5.996;2024-01-11T10:36:30;35.53;;;12.07;;
20415;SDS011;10367;52.202;5.996;2024-01-11T10:38:59;36.93;;;13.47;;
20415;SDS011;10367;52.202;5.996;2024-01-11T10:41:32;42.20;;;13.87;;
20415;SDS011;10367;52.202;5.996;2024-01-11T10:44:08;34.67;;;13.03;;
20415;SDS011;10367;52.202;5.996;2024-01-11T10:46:45;42.57;;;14.03;;
20415;SDS011;10367;52.202;5.996;2024-01-11T10:49:15;44.93;;;14.87;;
20415;SDS011;10367;52.202;5.996;2024-01-11T10:51:53;44.37;;;15.37;;
20415;SDS011;10367;52.202;5.996;2024-01-11T10:54:27;35.90;;;12.07;;
20415;SDS011;10367;52.202;5.996;2024-01-11T10:56:58;51.80;;;16.90;;
20415;SDS011;10367;52.202;5.996;2024-01-11T10:59:28;42.80;;;15.97;;
20415;SDS011;10367;52.202;5.996;2024-01-11T11:02:04;52.90;;;16.93;;
20415;SDS011;10367;52.202;5.996;2024-01-11T11:04:38;38.90;;;15.70;;
20415;SDS011;10367;52.202;5.996;2024-01-11T11:07:08;39.37;;;15.00;;
20415;SDS011;10367;52.202;5.996;2024-01-11T11:09:38;41.00;;;15.37;;
20415;SDS011;10367;52.202;5.996;2024-01-11T11:12:11;45.17;;;18.97;;
20415;SDS011;10367;52.202;5.996;2024-01-11T11:14:42;39.70;;;14.43;;
20415;SDS011;10367;52.202;5.996;2024-01-11T11:17:13;51.10;;;16.87;;
20415;SDS011;10367;52.202;5.996;2024-01-11T11:19:43;42.07;;;13.73;;
20415;SDS011;10367;52.202;5.996;2024-01-11T11:22:12;42.03;;;16.40;;
20415;SDS011;10367;52.202;5.996;2024-01-11T11:24:42;37.30;;;13.57;;
20415;SDS011;10367;52.202;5.996;2024-01-11T11:27:13;47.50;;;16.27;;
20415;SDS011;10367;52.202;5.996;2024-01-11T11:29:46;41.03;;;16.13;;
20415;SDS011;10367;52.202;5.996;2024-01-11T11:32:17;36.17;;;12.40;;
20415;SDS011;10367;52.202;5.996;2024-01-11T11:35:03;33.37;;;13.80;;
20415;SDS011;10367;52.202;5.996;2024-01-11T11:37:32;39.30;;;14.40;;
20415;SDS011;10367;52.202;5.996;2024-01-11T11:40:01;49.03;;;16.43;;
20415;SDS011;10367;52.202;5.996;2024-01-11T11:42:32;37.83;;;15.00;;
20415;SDS011;10367;52.202;5.996;2024-01-11T11:45:02;57.10;;;17.77;;
20415;SDS011;10367;52.202;5.996;2024-01-11T11:47:34;42.13;;;16.20;;
20415;SDS011;10367;52.202;5.996;2024-01-11T11:50:06;42.17;;;14.47;;
20415;SDS011;10367;52.202;5.996;2024-01-11T11:52:37;34.47;;;13.93;;
20415;SDS011;10367;52.202;5.996;2024-01-11T11:55:07;35.97;;;14.57;;
20415;SDS011;10367;52.202;5.996;2024-01-11T11:57:37;46.53;;;15.23;;
20415;SDS011;10367;52.202;5.996;2024-01-11T12:00:06;40.70;;;13.37;;
20415;SDS011;10367;52.202;5.996;2024-01-11T12:02:37;43.67;;;17.80;;
20415;SDS011;10367;52.202;5.996;2024-01-11T12:05:07;35.93;;;15.67;;
20415;SDS011;10367;52.202;5.996;2024-01-11T12:07:36;40.93;;;15.37;;
20415;SDS011;10367;52.202;5.996;2024-01-11T12:10:06;46.33;;;17.83;;
20415;SDS011;10367;52.202;5.996;2024-01-11T12:12:35;38.33;;;14.50;;
20415;SDS011;10367;52.202;5.996;2024-01-11T12:15:04;40.90;;;16.47;;
20415;SDS011;10367;52.202;5.996;2024-01-11T12:17:34;35.70;;;15.37;;
20415;SDS011;10367;52.202;5.996;2024-01-11T12:20:06;44.53;;;17.87;;
20415;SDS011;10367;52.202;5.996;2024-01-11T12:22:35;38.43;;;15.37;;
20415;SDS011;10367;52.202;5.996;2024-01-11T12:25:04;33.67;;;15.53;;
20415;SDS011;10367;52.202;5.996;2024-01-11T12:27:33;43.60;;;17.03;;
20415;SDS011;10367;52.202;5.996;2024-01-11T12:30:03;42.57;;;16.27;;
20415;SDS011;10367;52.202;5.996;2024-01-11T12:32:32;42.57;;;15.97;;
20415;SDS011;10367;52.202;5.996;2024-01-11T12:35:04;43.90;;;17.70;;
20415;SDS011;10367;52.202;5.996;2024-01-11T12:37:34;36.03;;;14.40;;
20415;SDS011;10367;52.202;5.996;2024-01-11T12:40:03;36.07;;;15.80;;
20415;SDS011;10367;52.202;5.996;2024-01-11T12:42:34;35.03;;;14.93;;
20415;SDS011;10367;52.202;5.996;2024-01-11T12:45:03;41.57;;;16.63;;
20415;SDS011;10367;52.202;5.996;2024-01-11T12:47:33;27.67;;;12.53;;
20415;SDS011;10367;52.202;5.996;2024-01-11T12:50:06;42.77;;;17.47;;
20415;SDS011;10367;52.202;5.996;2024-01-11T12:52:35;38.53;;;15.37;;
20415;SDS011;10367;52.202;5.996;2024-01-11T12:55:05;39.53;;;16.40;;
20415;SDS011;10367;52.202;5.996;2024-01-11T12:57:35;36.03;;;15.00;;
20415;SDS011;10367;52.202;5.996;2024-01-11T13:00:10;40.63;;;16.67;;
20415;SDS011;10367;52.202;5.996;2024-01-11T13:02:40;36.73;;;15.03;;
20415;SDS011;10367;52.202;5.996;2024-01-11T13:05:11;36.77;;;17.90;;
20415;SDS011;10367;52.202;5.996;2024-01-11T13:07:41;39.20;;;16.23;;
20415;SDS011;10367;52.202;5.996;2024-01-11T13:10:11;41.57;;;17.63;;
20415;SDS011;10367;52.202;5.996;2024-01-11T13:12:39;32.70;;;15.33;;
20415;SDS011;10367;52.202;5.996;2024-01-11T13:15:09;37.93;;;17.07;;
20415;SDS011;10367;52.202;5.996;2024-01-11T13:17:38;26.53;;;12.77;;
20415;SDS011;10367;52.202;5.996;2024-01-11T13:20:07;39.80;;;16.20;;
20415;SDS011;10367;52.202;5.996;2024-01-11T13:22:37;34.20;;;14.97;;
20415;SDS011;10367;52.202;5.996;2024-01-11T13:25:06;36.50;;;16.40;;
20415;SDS011;10367;52.202;5.996;2024-01-11T13:27:36;32.73;;;15.23;;
20415;SDS011;10367;52.202;5.996;2024-01-11T13:30:05;34.63;;;14.93;;
20415;SDS011;10367;52.202;5.996;2024-01-11T13:32:35;32.23;;;13.43;;
20415;SDS011;10367;52.202;5.996;2024-01-11T13:35:04;29.50;;;14.40;;
20415;SDS011;10367;52.202;5.996;2024-01-11T13:37:33;27.20;;;13.77;;
20415;SDS011;10367;52.202;5.996;2024-01-11T13:40:04;33.03;;;15.07;;
20415;SDS011;10367;52.202;5.996;2024-01-11T13:42:36;25.43;;;12.57;;
20415;SDS011;10367;52.202;5.996;2024-01-11T13:45:05;34.33;;;14.90;;
20415;SDS011;10367;52.202;5.996;2024-01-11T13:47:35;26.67;;;13.23;;
20415;SDS011;10367;52.202;5.996;2024-01-11T13:50:05;33.60;;;15.03;;
20415;SDS011;10367;52.202;5.996;2024-01-11T13:52:34;25.23;;;12.10;;
20415;SDS011;10367;52.202;5.996;2024-01-11T13:55:05;34.40;;;14.50;;
20415;SDS011;10367;52.202;5.996;2024-01-11T13:57:34;30.70;;;12.57;;
20415;SDS011;10367;52.202;5.996;2024-01-11T14:00:04;25.60;;;13.03;;
20415;SDS011;10367;52.202;5.996;2024-01-11T14:02:33;34.67;;;14.33;;
20415;SDS011;10367;52.202;5.996;2024-01-11T14:05:02;31.60;;;14.90;;
20415;SDS011;10367;52.202;5.996;2024-01-11T14:07:33;26.23;;;12.63;;
20415;SDS011;10367;52.202;5.996;2024-01-11T14:10:02;24.83;;;13.27;;
20415;SDS011;10367;52.202;5.996;2024-01-11T14:12:32;21.03;;;10.97;;
20415;SDS011;10367;52.202;5.996;2024-01-11T14:15:01;25.37;;;13.33;;
20415;SDS011;10367;52.202;5.996;2024-01-11T14:17:31;32.97;;;15.27;;
20415;SDS011;10367;52.202;5.996;2024-01-11T14:20:01;30.10;;;14.67;;
20415;SDS011;10367;52.202;5.996;2024-01-11T14:22:33;30.77;;;14.60;;
20415;SDS011;10367;52.202;5.996;2024-01-11T14:25:02;30.00;;;13.87;;
20415;SDS011;10367;52.202;5.996;2024-01-11T14:27:33;29.83;;;12.60;;
20415;SDS011;10367;52.202;5.996;2024-01-11T14:30:02;30.37;;;13.07;;
20415;SDS011;10367;52.202;5.996;2024-01-11T14:32:33;29.30;;;13.27;;
20415;SDS011;10367;52.202;5.996;2024-01-11T14:35:04;31.03;;;14.23;;
20415;SDS011;10367;52.202;5.996;2024-01-11T14:37:34;26.53;;;11.57;;